Time;durP1;ratioP1;P1;durP2;ratioP2;P2;SDS_P1;SDS_P2;PMS_P1;PMS_P2;Temp;Humidity;BMP_temperature;BMP_pressure;BME280_temperature;BME280_humidity;BME280_pressure;Samples;Min_cycle;Max_cycle;Signal;HPM_P1;HPM_P2
2022/04/09 00:00:15;;;;;;;0.60;0.60;;;2.60;99.90;1.80;96645.00;;;;5135556;28;20189;-74
2022/04/09 00:02:43;;;;;;;0.60;0.60;;;2.60;99.90;1.80;96653.00;;;;5136329;28;20209;-74
2022/04/09 00:05:13;;;;;;;0.60;0.60;;;2.70;99.90;1.90;96663.00;;;;5135374;28;20297;-74
2022/04/09 00:07:40;;;;;;;0.70;0.70;;;2.60;99.90;1.80;96685.00;;;;5117117;28;20231;-75
2022/04/09 00:10:09;;;;;;;0.73;0.73;;;2.60;99.90;1.90;96687.00;;;;5135226;28;20224;-73
2022/04/09 00:12:37;;;;;;;0.60;0.60;;;2.70;99.90;1.80;96706.00;;;;5117335;28;20198;-74
2022/04/09 00:15:06;;;;;;;0.60;0.60;;;2.60;99.90;1.80;96717.00;;;;5135076;28;20540;-75
2022/04/09 00:17:37;;;;;;;0.70;0.70;;;2.60;99.90;1.70;96733.00;;;;5135097;28;20252;-74
2022/04/09 00:20:06;;;;;;;0.60;0.60;;;2.60;99.90;1.80;96762.00;;;;5135246;28;20194;-74
2022/04/09 00:22:33;;;;;;;1.43;1.33;;;2.50;99.90;1.60;96780.00;;;;5135047;28;20205;-74
2022/04/09 00:24:59;;;;;;;0.60;0.60;;;2.50;99.90;1.70;96792.00;;;;5135029;28;20262;-74
2022/04/09 00:27:26;;;;;;;0.60;0.60;;;2.50;99.90;1.80;96816.00;;;;5135041;28;20625;-74
2022/04/09 00:29:53;;;;;;;0.80;0.80;;;2.60;99.90;1.60;96828.00;;;;5134778;28;20230;-74
2022/04/09 00:32:19;;;;;;;0.70;0.70;;;2.40;99.90;1.50;96834.00;;;;5134740;28;20283;-74
2022/04/09 00:34:46;;;;;;;0.60;0.60;;;2.40;99.90;1.50;96832.00;;;;5135186;28;20659;-74
2022/04/09 00:37:15;;;;;;;0.67;0.67;;;2.40;99.90;1.50;96843.00;;;;5135048;28;20235;-74
2022/04/09 00:39:42;;;;;;;0.90;0.90;;;2.40;99.90;1.50;96840.00;;;;5135315;28;20273;-75
2022/04/09 00:42:14;;;;;;;0.70;0.70;;;2.40;99.90;1.60;96834.00;;;;5139978;28;20220;-75
2022/04/09 00:44:40;;;;;;;0.70;0.70;;;2.40;99.90;1.80;96841.00;;;;5134865;28;20209;-75
2022/04/09 00:47:07;;;;;;;0.60;0.60;;;2.50;99.90;1.70;96853.00;;;;5134666;28;20223;-75
2022/04/09 00:49:37;;;;;;;0.50;0.50;;;2.60;99.90;1.60;96853.00;;;;5134935;27;20661;-75
2022/04/09 00:52:06;;;;;;;0.60;0.60;;;2.50;99.90;1.60;96867.00;;;;5138340;28;20201;-74
2022/04/09 00:54:34;;;;;;;0.60;0.60;;;2.40;99.90;1.50;96826.00;;;;5138313;28;20217;-74
2022/04/09 00:57:05;;;;;;;0.50;0.50;;;2.40;99.90;1.70;96885.00;;;;5138081;28;20643;-74
2022/04/09 00:59:37;;;;;;;0.60;0.60;;;2.50;99.90;1.80;96898.00;;;;5138174;28;20186;-75
2022/04/09 01:02:04;;;;;;;0.63;0.63;;;2.60;99.90;1.80;96910.00;;;;5138122;28;20187;-75
2022/04/09 01:04:32;;;;;;;0.73;0.73;;;2.60;99.90;1.70;96903.00;;;;5138154;28;20284;-75
2022/04/09 01:07:00;;;;;;;0.50;0.50;;;2.50;99.90;1.80;96928.00;;;;5138173;28;20221;-75
2022/04/09 01:09:26;;;;;;;0.60;0.60;;;2.60;99.90;1.80;96932.00;;;;5137825;28;20242;-75
2022/04/09 01:11:55;;;;;;;0.60;0.60;;;2.70;99.90;1.70;96952.00;;;;5137950;28;20528;-75
2022/04/09 01:14:24;;;;;;;0.60;0.60;;;2.60;99.90;1.90;96955.00;;;;5137981;28;20293;-75
2022/04/09 01:16:51;;;;;;;0.70;0.70;;;2.70;99.90;1.80;96959.00;;;;5137898;28;20222;-75
2022/04/09 01:19:17;;;;;;;0.60;0.60;;;2.60;99.90;1.90;96963.00;;;;5119767;28;20212;-75
2022/04/09 01:21:48;;;;;;;0.80;0.80;;;2.70;99.90;1.80;96964.00;;;;5137851;28;20260;-77
2022/04/09 01:24:15;;;;;;;0.70;0.70;;;2.80;99.90;1.90;96980.00;;;;5137867;28;20345;-75
2022/04/09 01:26:42;;;;;;;0.70;0.70;;;2.70;99.90;1.90;96991.00;;;;5119888;28;20199;-76
2022/04/09 01:29:09;;;;;;;0.70;0.70;;;2.70;99.90;2.00;97011.00;;;;5137548;28;20206;-75
2022/04/09 01:31:36;;;;;;;0.60;0.60;;;2.80;99.90;2.10;97008.00;;;;5137799;28;20292;-75
2022/04/09 01:34:02;;;;;;;0.60;0.60;;;2.80;99.90;2.00;97008.00;;;;5137670;28;20202;-75
2022/04/09 01:36:29;;;;;;;0.70;0.70;;;2.90;99.90;1.90;97016.00;;;;5119350;28;20628;-75
2022/04/09 01:38:55;;;;;;;0.70;0.70;;;2.80;99.90;1.70;97032.00;;;;5119578;28;20551;-75
2022/04/09 01:41:23;;;;;;;0.70;0.70;;;2.80;99.90;2.00;97038.00;;;;5137504;28;20642;-75
2022/04/09 01:43:49;;;;;;;0.63;0.63;;;2.80;99.90;2.10;97040.00;;;;5119611;28;20332;-75
2022/04/09 01:46:18;;;;;;;0.60;0.60;;;2.80;99.90;2.10;97042.00;;;;5137499;28;20192;-75
2022/04/09 01:48:48;;;;;;;0.60;0.60;;;2.80;99.90;2.20;97056.00;;;;5119365;28;20230;-75
2022/04/09 01:51:17;;;;;;;0.70;0.70;;;2.90;99.90;2.30;97061.00;;;;5137635;28;20526;-75
2022/04/09 01:53:43;;;;;;;0.70;0.70;;;3.00;99.90;2.20;97066.00;;;;5137601;28;20259;-75
2022/04/09 01:56:12;;;;;;;0.70;0.70;;;3.00;99.90;2.00;97070.00;;;;5137433;28;20254;-75
2022/04/09 01:58:39;;;;;;;0.70;0.70;;;2.90;99.90;2.10;97073.00;;;;5137522;28;20194;-75
2022/04/09 02:01:06;;;;;;;0.60;0.60;;;2.90;99.90;2.10;97101.00;;;;5136767;27;20275;-75
2022/04/09 02:03:36;;;;;;;0.80;0.80;;;2.90;99.90;2.10;97115.00;;;;5137297;28;20235;-74
2022/04/09 02:06:02;;;;;;;0.70;0.70;;;2.90;99.90;2.30;97113.00;;;;5137626;28;20272;-75
2022/04/09 02:08:30;;;;;;;0.80;0.80;;;3.00;99.90;2.30;97104.00;;;;5137563;28;20202;-77
2022/04/09 02:10:56;;;;;;;0.70;0.70;;;3.10;99.90;2.20;97100.00;;;;5137698;28;20211;-75
2022/04/09 02:13:25;;;;;;;0.80;0.80;;;3.00;99.90;2.10;97107.00;;;;5137905;28;20636;-75
2022/04/09 02:15:52;;;;;;;0.73;0.73;;;2.90;99.90;2.20;97113.00;;;;5137567;28;20598;-74
2022/04/09 02:18:18;;;;;;;0.80;0.80;;;2.90;99.90;2.10;97120.00;;;;5137470;28;20214;-75
2022/04/09 02:20:45;;;;;;;0.70;0.70;;;2.90;99.90;2.00;97107.00;;;;5138077;28;20273;-75
2022/04/09 02:23:12;;;;;;;0.70;0.70;;;2.90;99.90;2.00;97114.00;;;;5137790;28;20214;-75
2022/04/09 02:25:38;;;;;;;0.80;0.80;;;2.80;99.90;1.90;97147.00;;;;5121113;28;20238;-76
2022/04/09 02:28:05;;;;;;;0.63;0.63;;;2.70;99.90;1.80;97151.00;;;;5139955;28;20289;-76
2022/04/09 02:30:31;;;;;;;0.70;0.70;;;2.70;99.90;2.00;97157.00;;;;5139145;28;20217;-76
2022/04/09 02:32:59;;;;;;;0.90;0.90;;;2.70;99.90;2.00;97178.00;;;;5140359;28;20191;-73
2022/04/09 02:35:26;;;;;;;0.70;0.70;;;2.80;99.90;2.10;97180.00;;;;5145498;28;20241;-73
2022/04/09 02:37:53;;;;;;;1.17;1.07;;;2.80;99.90;1.80;97184.00;;;;5148219;28;20194;-74
2022/04/09 02:40:20;;;;;;;0.77;0.77;;;2.70;99.90;1.80;97193.00;;;;5149551;28;20206;-76
2022/04/09 02:42:47;;;;;;;0.93;0.93;;;2.60;99.90;2.00;97207.00;;;;5142278;28;20227;-77
2022/04/09 02:45:14;;;;;;;0.70;0.70;;;2.70;99.90;2.00;97206.00;;;;5138322;28;20204;-76
2022/04/09 02:47:41;;;;;;;0.77;0.77;;;2.70;99.90;1.80;97223.00;;;;5137008;28;20284;-75
2022/04/09 02:50:12;;;;;;;0.93;0.93;;;2.70;99.90;2.00;97220.00;;;;5136568;28;20219;-75
2022/04/09 02:52:41;;;;;;;0.70;0.70;;;2.80;99.90;1.80;97224.00;;;;5136398;28;20286;-75
2022/04/09 02:55:09;;;;;;;1.13;1.03;;;2.70;99.90;1.90;97242.00;;;;5136262;28;20556;-75
2022/04/09 02:57:37;;;;;;;0.70;0.70;;;2.70;99.90;2.00;97235.00;;;;5118156;28;20213;-75
2022/04/09 03:00:11;;;;;;;0.70;0.70;;;2.70;99.90;1.80;97266.00;;;;5118500;28;20259;-75
2022/04/09 03:02:38;;;;;;;0.80;0.80;;;2.70;99.90;1.90;97260.00;;;;5136118;28;20223;-75
2022/04/09 03:05:09;;;;;;;0.60;0.60;;;2.70;99.90;2.00;97266.00;;;;5136604;28;20238;-74
2022/04/09 03:07:36;;;;;;;0.70;0.70;;;2.80;99.90;1.70;97272.00;;;;5136603;28;20291;-75
2022/04/09 03:10:06;;;;;;;0.77;0.77;;;2.80;99.90;2.00;97283.00;;;;5121404;28;20232;-76
2022/04/09 03:12:32;;;;;;;0.70;0.70;;;2.80;99.90;1.80;97289.00;;;;5141680;27;20191;-74
2022/04/09 03:14:59;;;;;;;0.70;0.70;;;2.70;99.90;1.80;97287.00;;;;5137698;28;20264;-76
2022/04/09 03:17:28;;;;;;;0.47;0.47;;;2.70;99.90;1.70;97299.00;;;;5141695;28;20205;-75
2022/04/09 03:19:54;;;;;;;0.60;0.60;;;2.70;99.90;1.90;97309.00;;;;5136272;28;20324;-76
2022/04/09 03:22:22;;;;;;;0.70;0.70;;;2.70;99.90;1.80;97306.00;;;;5135926;28;20294;-75
2022/04/09 03:24:49;;;;;;;0.70;0.70;;;2.70;99.90;2.00;97313.00;;;;5135830;28;20195;-75
2022/04/09 03:27:15;;;;;;;0.70;0.70;;;2.80;99.90;2.10;97318.00;;;;5135827;28;20203;-75
2022/04/09 03:29:42;;;;;;;0.70;0.70;;;2.70;99.90;1.90;97323.00;;;;5135755;28;20710;-75
2022/04/09 03:32:09;;;;;;;1.17;1.17;;;2.70;99.90;1.90;97330.00;;;;5135708;28;20288;-75
2022/04/09 03:34:37;;;;;;;1.17;0.93;;;2.70;99.90;2.10;97336.00;;;;5135457;28;20218;-75
2022/04/09 03:37:04;;;;;;;1.57;1.47;;;2.90;99.90;2.10;97340.00;;;;5135530;28;20218;-75
2022/04/09 03:39:31;;;;;;;1.40;1.07;;;2.90;99.90;2.30;97338.00;;;;5135611;28;20656;-75
2022/04/09 03:41:58;;;;;;;1.27;1.27;;;3.00;99.90;2.30;97346.00;;;;5135459;28;20194;-75
2022/04/09 03:44:25;;;;;;;0.90;0.90;;;3.10;99.90;2.20;97356.00;;;;5135452;28;20226;-74
2022/04/09 03:46:58;;;;;;;0.97;0.90;;;3.00;99.90;2.20;97358.00;;;;5135454;28;20198;-75
2022/04/09 03:49:24;;;;;;;1.50;1.40;;;3.00;99.90;2.20;97379.00;;;;5135373;28;20229;-74
2022/04/09 03:51:51;;;;;;;1.90;1.77;;;3.00;99.90;2.10;97378.00;;;;5135329;28;20254;-75
2022/04/09 03:54:17;;;;;;;1.27;1.27;;;3.00;99.90;2.10;97388.00;;;;5135389;28;20194;-75
2022/04/09 03:56:46;;;;;;;0.97;0.97;;;3.00;99.90;2.10;97387.00;;;;5135257;28;20270;-75
2022/04/09 03:59:14;;;;;;;0.80;0.80;;;3.00;99.90;2.10;97393.00;;;;5135377;28;20204;-75
2022/04/09 04:01:43;;;;;;;1.47;1.27;;;3.00;99.90;2.20;97403.00;;;;5135229;28;20211;-75
2022/04/09 04:04:11;;;;;;;1.60;1.50;;;2.90;99.90;2.20;97404.00;;;;5117186;28;20570;-74
2022/04/09 04:06:37;;;;;;;1.20;1.10;;;3.00;99.90;2.30;97404.00;;;;5135202;28;20199;-74
2022/04/09 04:09:04;;;;;;;2.03;1.83;;;3.10;99.90;2.10;97414.00;;;;5135125;28;20226;-75
2022/04/09 04:11:34;;;;;;;0.93;0.93;;;3.00;99.90;2.00;97409.00;;;;5135072;28;20199;-74
2022/04/09 04:14:00;;;;;;;0.80;0.80;;;2.90;99.90;2.10;97424.00;;;;5135006;28;20197;-75
2022/04/09 04:16:27;;;;;;;1.10;1.10;;;2.90;99.90;2.20;97425.00;;;;5134875;28;20236;-75
2022/04/09 04:18:54;;;;;;;0.97;0.97;;;2.90;99.90;2.00;97432.00;;;;5135025;28;20212;-75
2022/04/09 04:21:23;;;;;;;1.00;1.00;;;2.90;99.90;1.90;97434.00;;;;5134987;28;20344;-74
2022/04/09 04:23:49;;;;;;;1.80;1.57;;;2.80;99.90;2.10;97434.00;;;;5134857;28;20262;-75
2022/04/09 04:26:16;;;;;;;1.30;1.30;;;2.90;99.90;2.20;97438.00;;;;5134340;27;20348;-75
2022/04/09 04:28:48;;;;;;;12.67;1.90;;;3.00;99.90;2.20;97447.00;;;;5134723;28;20217;-75
2022/04/09 04:31:15;;;;;;;1.57;1.47;;;3.00;99.90;2.10;97470.00;;;;5134819;28;20190;-74
2022/04/09 04:33:45;;;;;;;2.07;1.97;;;2.90;99.90;2.10;97454.00;;;;5135128;28;20253;-74
2022/04/09 04:36:12;;;;;;;2.60;1.20;;;2.90;99.90;2.00;97464.00;;;;5113940;28;20300;-75
2022/04/09 04:38:39;;;;;;;1.90;1.80;;;2.90;99.90;2.10;97476.00;;;;5079523;28;20207;-74
2022/04/09 04:41:06;;;;;;;1.37;1.37;;;2.90;99.90;1.90;97472.00;;;;5096226;28;20333;-74
2022/04/09 04:43:33;;;;;;;1.10;1.10;;;2.80;99.90;1.70;97480.00;;;;5113976;28;20728;-74
2022/04/09 04:46:00;;;;;;;1.43;1.43;;;2.70;99.90;1.80;97427.00;;;;5114078;28;20207;-74
2022/04/09 04:48:26;;;;;;;1.23;0.90;;;2.80;99.90;1.90;97488.00;;;;5113986;28;20344;-74
2022/04/09 04:50:56;;;;;;;2.23;1.27;;;2.70;99.90;1.90;97484.00;;;;5113947;28;20206;-74
2022/04/09 04:53:22;;;;;;;1.57;1.33;;;2.70;99.90;1.90;97490.00;;;;5113877;28;20204;-74
2022/04/09 04:55:49;;;;;;;1.57;1.47;;;2.70;99.90;1.80;97494.00;;;;5113767;28;20232;-74
2022/04/09 04:58:19;;;;;;;1.30;1.30;;;2.70;99.90;1.80;97509.00;;;;5114042;28;20289;-75
2022/04/09 05:00:46;;;;;;;1.27;1.23;;;2.70;99.90;1.70;97512.00;;;;5114048;28;20205;-74
2022/04/09 05:03:13;;;;;;;0.97;0.97;;;2.60;99.90;1.80;97516.00;;;;5095924;28;20223;-74
2022/04/09 05:05:40;;;;;;;1.30;1.30;;;2.70;99.90;1.80;97525.00;;;;5113775;28;20237;-75
2022/04/09 05:08:09;;;;;;;1.00;1.00;;;2.60;99.90;1.80;97523.00;;;;5113721;28;20209;-74
2022/04/09 05:10:35;;;;;;;1.13;1.13;;;2.60;99.90;1.80;97522.00;;;;5113808;28;20208;-74
2022/04/09 05:13:02;;;;;;;1.00;1.00;;;2.60;99.90;1.90;97539.00;;;;5113792;28;20201;-75
2022/04/09 05:15:28;;;;;;;1.10;1.10;;;2.70;99.90;1.90;97538.00;;;;5113541;28;20219;-74
2022/04/09 05:17:55;;;;;;;1.30;1.30;;;2.80;99.90;1.80;97544.00;;;;5113707;28;20503;-75
2022/04/09 05:20:22;;;;;;;1.37;1.20;;;2.70;99.90;1.80;97548.00;;;;5113553;28;20227;-75
2022/04/09 05:22:48;;;;;;;1.37;1.37;;;2.70;99.90;1.90;97557.00;;;;5113514;28;20223;-74
2022/04/09 05:25:19;;;;;;;1.63;1.53;;;2.70;99.90;1.80;97565.00;;;;5113830;28;20509;-75
2022/04/09 05:27:46;;;;;;;0.70;0.70;;;2.70;99.90;1.90;97573.00;;;;5113458;28;20205;-75
2022/04/09 05:30:13;;;;;;;1.13;1.13;;;2.80;99.90;1.90;97576.00;;;;5095579;28;20206;-74
2022/04/09 05:32:39;;;;;;;1.10;1.10;;;2.80;99.90;1.90;97584.00;;;;5113613;28;20233;-75
2022/04/09 05:35:07;;;;;;;1.10;1.10;;;2.80;99.90;1.80;97574.00;;;;5113275;28;20312;-74
2022/04/09 05:37:34;;;;;;;0.87;0.87;;;2.80;99.90;1.80;97590.00;;;;5097554;28;20219;-75
2022/04/09 05:40:01;;;;;;;0.87;0.87;;;2.70;99.90;2.00;97597.00;;;;5117007;28;20203;-74
2022/04/09 05:42:28;;;;;;;1.70;1.60;;;2.80;99.90;2.10;97609.00;;;;5116898;28;20314;-74
2022/04/09 05:44:54;;;;;;;1.57;1.47;;;2.90;99.90;2.20;97614.00;;;;5098979;28;20283;-74
2022/04/09 05:47:21;;;;;;;2.03;1.93;;;3.00;99.90;1.90;97607.00;;;;5098743;28;20205;-74
2022/04/09 05:49:47;;;;;;;1.97;1.83;;;2.80;99.90;2.00;97613.00;;;;5116744;28;20270;-74
2022/04/09 05:52:14;;;;;;;1.27;1.27;;;2.90;99.90;2.00;97618.00;;;;5116715;28;20220;-75
2022/04/09 05:54:40;;;;;;;1.40;1.37;;;2.80;99.90;2.10;97615.00;;;;5116547;28;20631;-74
2022/04/09 05:57:07;;;;;;;1.40;1.30;;;2.90;99.90;2.00;97628.00;;;;5116822;28;20204;-74
2022/04/09 05:59:35;;;;;;;1.73;1.63;;;2.90;99.90;2.30;97619.00;;;;5116622;28;20653;-75
2022/04/09 06:02:01;;;;;;;1.13;1.13;;;3.00;99.90;2.10;97629.00;;;;5098805;28;20555;-74
2022/04/09 06:04:28;;;;;;;1.07;1.07;;;2.90;99.90;2.10;97625.00;;;;5116491;28;20199;-74
2022/04/09 06:06:55;;;;;;;1.37;1.33;;;2.90;99.70;2.00;97645.00;;;;5116557;28;20192;-75
2022/04/09 06:09:22;;;;;;;0.80;0.80;;;2.90;99.90;2.00;97649.00;;;;5116716;28;20223;-75
2022/04/09 06:11:48;;;;;;;1.93;1.83;;;2.90;99.90;2.20;97641.00;;;;5119398;28;20211;-75
2022/04/09 06:14:15;;;;;;;1.17;1.17;;;3.00;99.90;2.20;97660.00;;;;5116998;28;20194;-74
2022/04/09 06:16:45;;;;;;;1.97;1.87;;;3.10;99.40;2.50;97647.00;;;;5116271;28;20556;-74
2022/04/09 06:19:11;;;;;;;1.33;1.23;;;3.20;98.50;2.50;97660.00;;;;5116319;28;20634;-75
2022/04/09 06:21:38;;;;;;;1.00;1.00;;;3.20;98.30;2.50;97671.00;;;;5116385;28;20287;-75
2022/04/09 06:24:05;;;;;;;1.07;1.07;;;3.30;98.00;2.50;97670.00;;;;5098238;28;20306;-76
2022/04/09 06:26:32;;;;;;;0.90;0.90;;;3.30;97.40;2.50;97675.00;;;;5116243;28;20199;-75
2022/04/09 06:28:58;;;;;;;2.67;2.47;;;3.40;97.20;2.60;97668.00;;;;5116034;28;20211;-75
2022/04/09 06:31:25;;;;;;;1.80;1.43;;;3.50;97.60;2.80;97675.00;;;;5098254;28;20203;-76
2022/04/09 06:33:53;;;;;;;0.70;0.70;;;3.50;97.60;2.80;97684.00;;;;5116180;28;20233;-76
2022/04/09 06:36:20;;;;;;;1.10;1.10;;;3.50;96.90;2.80;97684.00;;;;5116088;28;20223;-76
2022/04/09 06:38:47;;;;;;;1.20;1.20;;;3.60;96.60;2.60;97696.00;;;;5098394;28;20668;-76
2022/04/09 06:41:14;;;;;;;1.47;1.47;;;3.50;96.10;2.70;97686.00;;;;5116062;28;20226;-76
2022/04/09 06:43:41;;;;;;;1.20;1.20;;;3.50;96.80;2.60;97679.00;;;;5115863;28;20243;-76
2022/04/09 06:46:10;;;;;;;1.33;1.23;;;3.50;96.30;2.70;97697.00;;;;5115783;28;20194;-75
2022/04/09 06:48:37;;;;;;;1.00;1.00;;;3.50;97.10;2.80;97696.00;;;;5115820;28;20196;-76
2022/04/09 06:51:05;;;;;;;1.00;1.00;;;3.50;97.20;3.00;97699.00;;;;5116393;28;20292;-76
2022/04/09 06:53:31;;;;;;;1.57;1.47;;;3.70;96.50;2.80;97710.00;;;;5115917;28;20313;-76
2022/04/09 06:55:58;;;;;;;1.40;1.30;;;3.70;95.10;2.90;97709.00;;;;5098321;28;20243;-77
2022/04/09 06:58:24;;;;;;;1.00;1.00;;;3.70;95.20;3.00;97712.00;;;;5116069;28;20317;-74
2022/04/09 07:00:51;;;;;;;1.30;1.30;;;3.90;95.50;3.00;97705.00;;;;5116137;28;20191;-76
2022/04/09 07:03:17;;;;;;;1.50;1.40;;;3.80;95.00;3.10;97728.00;;;;5115975;28;20243;-75
2022/04/09 07:05:44;;;;;;;1.10;1.10;;;3.90;95.10;3.20;97722.00;;;;5115781;28;20207;-76
2022/04/09 07:08:12;;;;;;;0.90;0.90;;;4.00;94.40;3.20;97742.00;;;;5115621;28;20195;-75
2022/04/09 07:10:42;;;;;;;1.00;1.00;;;4.00;93.60;3.30;97725.00;;;;5115797;28;20188;-76
2022/04/09 07:13:09;;;;;;;1.17;1.17;;;4.10;94.70;3.30;97738.00;;;;5115942;28;20192;-76
2022/04/09 07:15:36;;;;;;;1.10;1.10;;;4.10;93.90;3.20;97740.00;;;;5115428;28;20219;-75
2022/04/09 07:18:03;;;;;;;1.47;1.37;;;4.00;92.80;3.30;97751.00;;;;5115941;28;20670;-75
2022/04/09 07:20:33;;;;;;;1.10;1.10;;;4.00;94.70;3.40;97716.00;;;;5098292;28;20259;-75
2022/04/09 07:23:02;;;;;;;0.70;0.70;;;4.00;93.10;3.40;97745.00;;;;5123606;28;20239;-76
2022/04/09 07:25:30;;;;;;;2.37;1.27;;;4.10;92.90;3.30;97750.00;;;;5127664;28;20196;-76
2022/04/09 07:27:56;;;;;;;1.00;1.00;;;4.20;93.50;3.50;97751.00;;;;5124594;28;20226;-76
2022/04/09 07:30:24;;;;;;;1.77;1.67;;;4.20;93.60;3.60;97768.00;;;;5115816;28;20527;-77
2022/04/09 07:32:51;;;;;;;0.83;0.83;;;4.30;94.30;3.70;97769.00;;;;5115271;28;20228;-76
2022/04/09 07:35:17;;;;;;;0.60;0.60;;;4.40;92.70;3.80;97783.00;;;;5097193;28;20252;-76
2022/04/09 07:37:46;;;;;;;1.47;1.37;;;4.50;92.90;3.80;97781.00;;;;5115011;28;20274;-76
2022/04/09 07:40:16;;;;;;;1.30;1.30;;;4.60;91.80;3.90;97792.00;;;;5097133;28;20221;-77
2022/04/09 07:42:45;;;;;;;0.87;0.87;;;4.70;92.30;4.00;97794.00;;;;5114944;28;20193;-76
2022/04/09 07:45:15;;;;;;;1.27;1.27;;;4.70;90.70;3.90;97805.00;;;;5115090;28;20204;-75
2022/04/09 07:47:43;;;;;;;1.23;1.23;;;4.60;91.50;4.00;97815.00;;;;5114998;28;20207;-76
2022/04/09 07:50:11;;;;;;;3.80;1.27;;;4.70;91.00;4.10;97815.00;;;;5114715;28;20686;-75
2022/04/09 07:52:39;;;;;;;0.93;0.93;;;4.80;90.80;4.20;97824.00;;;;5096984;28;20207;-75
2022/04/09 07:55:07;;;;;;;2.37;1.03;;;4.90;90.60;4.30;97838.00;;;;5113820;28;20233;-76
2022/04/09 07:57:34;;;;;;;1.63;1.53;;;5.10;89.40;4.20;97837.00;;;;5114869;28;20576;-76
2022/04/09 08:00:01;;;;;;;0.90;0.90;;;5.00;89.00;4.30;97842.00;;;;5096139;28;20232;-76
2022/04/09 08:02:28;;;;;;;1.07;1.07;;;5.00;88.20;4.10;97842.00;;;;5096879;28;20212;-77
2022/04/09 08:04:57;;;;;;;1.30;1.30;;;5.00;88.10;4.20;97854.00;;;;5114506;28;20217;-76
2022/04/09 08:07:23;;;;;;;1.10;1.10;;;5.00;88.10;4.20;97863.00;;;;5114635;28;20189;-77
2022/04/09 08:09:50;;;;;;;0.60;0.60;;;4.90;88.60;4.00;97857.00;;;;5114460;28;20301;-77
2022/04/09 08:12:16;;;;;;;1.07;1.07;;;4.80;88.40;4.20;97858.00;;;;5096704;28;20216;-76
2022/04/09 08:14:44;;;;;;;1.00;1.00;;;4.90;88.60;3.90;97868.00;;;;5096406;28;20241;-74
2022/04/09 08:17:13;;;;;;;0.80;0.80;;;4.80;88.90;3.90;97878.00;;;;5114326;28;20230;-76
2022/04/09 08:19:40;;;;;;;1.80;1.53;;;4.70;88.90;4.20;97873.00;;;;5113406;28;20235;-76
2022/04/09 08:22:08;;;;;;;1.33;1.33;;;4.90;90.40;4.10;97878.00;;;;5096367;28;20204;-77
2022/04/09 08:24:35;;;;;;;0.87;0.87;;;4.80;89.70;4.10;97880.00;;;;5114425;28;20219;-77
2022/04/09 08:27:01;;;;;;;0.73;0.73;;;4.90;89.00;4.50;97879.00;;;;5096491;28;20688;-75
2022/04/09 08:29:28;;;;;;;0.80;0.80;;;5.10;88.70;4.40;97881.00;;;;5114237;28;20203;-74
2022/04/09 08:31:54;;;;;;;6.97;1.07;;;5.10;89.00;4.50;97892.00;;;;5114561;28;20246;-76
2022/04/09 08:34:22;;;;;;;0.70;0.70;;;5.30;86.80;4.50;97875.00;;;;5117103;28;20248;-77
2022/04/09 08:36:49;;;;;;;0.70;0.70;;;5.20;87.20;4.40;97883.00;;;;5121321;28;20240;-77
2022/04/09 08:39:16;;;;;;;1.10;1.07;;;5.20;87.50;4.70;97886.00;;;;5100106;28;20295;-76
2022/04/09 08:41:44;;;;;;;0.90;0.90;;;5.40;86.70;4.80;97895.00;;;;5114171;28;20217;-77
2022/04/09 08:44:12;;;;;;;1.17;1.17;;;5.40;87.10;4.80;97852.00;;;;5096494;28;20249;-73
2022/04/09 08:46:46;;;;;;;1.03;1.03;;;5.50;86.80;4.80;97886.00;;;;5114128;28;20221;-75
2022/04/09 08:49:14;;;;;;;1.07;1.07;;;5.50;86.40;4.90;97884.00;;;;5114121;28;20205;-76
2022/04/09 08:51:41;;;;;;;0.80;0.80;;;5.50;87.30;5.10;97887.00;;;;5096170;28;20715;-74
2022/04/09 08:54:08;;;;;;;1.80;1.70;;;5.70;86.40;5.20;97895.00;;;;5113945;28;20225;-73
2022/04/09 08:56:36;;;;;;;1.40;1.40;;;5.80;85.50;5.00;97898.00;;;;5095775;28;20257;-74
2022/04/09 08:59:05;;;;;;;0.90;0.90;;;5.80;85.20;5.00;97905.00;;;;5113764;28;20194;-76
2022/04/09 09:01:32;;;;;;;1.07;1.07;;;5.70;87.10;4.70;97885.00;;;;5113836;28;20289;-77
2022/04/09 09:04:00;;;;;;;1.27;1.27;;;5.50;85.70;4.60;97899.00;;;;5113988;28;20223;-76
2022/04/09 09:06:29;;;;;;;0.90;0.90;;;5.40;87.70;4.40;97901.00;;;;5113725;28;20628;-76
2022/04/09 09:08:59;;;;;;;1.07;1.07;;;5.20;86.50;4.80;97899.00;;;;5113856;28;20589;-73
2022/04/09 09:11:28;;;;;;;1.10;1.03;;;5.40;86.20;5.00;97898.00;;;;5115464;28;20331;-76
2022/04/09 09:13:56;;;;;;;1.43;1.33;;;5.60;86.60;5.20;97910.00;;;;5117683;28;20251;-77
2022/04/09 09:16:26;;;;;;;1.53;1.00;;;5.80;85.50;5.00;97908.00;;;;5117307;28;20221;-76
2022/04/09 09:18:57;;;;;;;0.90;0.90;;;5.70;83.70;5.10;97911.00;;;;5117774;28;20653;-76
2022/04/09 09:21:27;;;;;;;1.37;1.37;;;5.80;83.40;5.20;97915.00;;;;5122709;28;20182;-77
2022/04/09 09:24:12;;;;;;;0.83;0.83;;;5.90;84.10;5.10;97904.00;;;;5117445;28;20277;-77
2022/04/09 09:26:39;;;;;;;1.20;1.20;;;5.90;81.70;5.20;97917.00;;;;5117522;28;20636;-79
2022/04/09 09:29:08;;;;;;;0.77;0.77;;;6.00;82.60;5.40;97915.00;;;;5118016;28;20202;-76
2022/04/09 09:31:43;;;;;;;0.87;0.87;;;6.00;83.80;5.60;97928.00;;;;5117133;28;20198;-77
2022/04/09 09:34:11;;;;;;;0.60;0.60;;;6.20;82.30;5.90;97927.00;;;;5099377;28;20224;-78
2022/04/09 09:36:43;;;;;;;1.10;1.00;;;6.50;80.70;6.20;97926.00;;;;5117054;28;20222;-77
2022/04/09 09:39:15;;;;;;;0.80;0.80;;;6.70;80.00;6.40;97926.00;;;;5116953;28;20222;-76
2022/04/09 09:41:51;;;;;;;0.80;0.80;;;7.00;78.40;6.80;97928.00;;;;5099070;28;20190;-75
2022/04/09 09:44:19;;;;;;;0.60;0.60;;;7.20;76.60;6.40;97923.00;;;;5116881;28;20221;-74
2022/04/09 09:46:49;;;;;;;0.70;0.70;;;7.20;76.00;6.30;97885.00;;;;5116892;28;20278;-75
2022/04/09 09:49:16;;;;;;;3.30;1.13;;;7.00;72.10;6.40;97920.00;;;;5116761;28;20218;-74
2022/04/09 09:51:44;;;;;;;0.50;0.50;;;7.00;70.50;6.80;97935.00;;;;5116690;28;20195;-75
2022/04/09 09:54:13;;;;;;;0.83;0.83;;;7.40;70.50;6.70;97932.00;;;;5116567;28;20225;-75
2022/04/09 09:56:42;;;;;;;0.90;0.90;;;7.40;67.90;6.30;97932.00;;;;5116588;28;20222;-75
2022/04/09 09:59:12;;;;;;;1.13;1.13;;;7.10;64.70;6.30;97929.00;;;;5116535;28;20221;-73
2022/04/09 10:01:41;;;;;;;1.17;1.17;;;7.10;66.20;6.40;97932.00;;;;5116590;28;20204;-75
2022/04/09 10:04:11;;;;;;;0.80;0.80;;;7.10;64.20;6.40;97929.00;;;;5102597;28;20241;-76
2022/04/09 10:06:39;;;;;;;1.57;0.93;;;7.20;63.40;6.40;97941.00;;;;5119077;28;20208;-75
2022/04/09 10:09:07;;;;;;;0.77;0.77;;;7.10;63.50;6.70;97940.00;;;;5116551;28;20262;-73
2022/04/09 10:11:37;;;;;;;1.17;1.07;;;7.30;64.10;6.60;97937.00;;;;5116494;28;20206;-76
2022/04/09 10:14:04;;;;;;;0.93;0.90;;;7.30;63.30;6.90;97942.00;;;;5116437;28;20278;-74
2022/04/09 10:16:34;;;;;;;1.20;1.20;;;7.40;62.60;6.80;97923.00;;;;5098405;28;20332;-75
2022/04/09 10:19:04;;;;;;;1.13;0.97;;;7.50;63.50;6.70;97935.00;;;;5116059;28;20249;-75
2022/04/09 10:21:34;;;;;;;0.50;0.50;;;7.40;61.20;6.50;97936.00;;;;5098355;28;20201;-74
2022/04/09 10:24:06;;;;;;;0.63;0.63;;;7.30;60.30;6.10;97937.00;;;;5097680;28;20289;-73
2022/04/09 10:26:33;;;;;;;1.10;1.10;;;7.00;62.30;6.60;97934.00;;;;5116267;28;20284;-73
2022/04/09 10:29:10;;;;;;;0.60;0.60;;;7.30;59.60;7.00;97954.00;;;;5116112;28;20230;-72
2022/04/09 10:31:38;;;;;;;0.83;0.83;;;7.50;60.50;6.80;97947.00;;;;5116095;28;20223;-74
2022/04/09 10:34:07;;;;;;;0.60;0.60;;;7.50;57.80;6.50;97945.00;;;;5098425;28;20256;-76
2022/04/09 10:37:04;;;;;;;0.70;0.70;;;7.30;59.90;6.80;97954.00;;;;5116085;28;20230;-76
2022/04/09 10:39:46;;;;;;;0.60;0.60;;;7.50;59.50;6.20;97951.00;;;;5116064;28;20202;-76
2022/04/09 10:42:50;;;;;;;0.80;0.80;;;7.20;57.30;6.60;97959.00;;;;5114151;28;20237;-77
2022/04/09 10:45:18;;;;;;;1.00;0.97;;;7.30;59.80;6.40;97963.00;;;;5115734;28;20319;-75
2022/04/09 10:48:10;;;;;;;0.80;0.80;;;7.20;58.70;6.40;97945.00;;;;5116010;28;20279;-76
2022/04/09 10:50:58;;;;;;;0.73;0.73;;;7.10;59.30;6.80;97938.00;;;;5098037;28;20275;-75
2022/04/09 10:53:27;;;;;;;0.80;0.80;;;7.40;57.70;6.80;97952.00;;;;5098397;28;20232;-76
2022/04/09 10:56:14;;;;;;;0.80;0.80;;;7.40;58.00;7.30;97926.00;;;;5115769;28;20291;-77
2022/04/09 10:59:04;;;;;;;0.63;0.63;;;7.70;58.70;7.50;97940.00;;;;5116370;28;20215;-76
2022/04/09 11:01:53;;;;;;;0.90;0.90;;;8.10;54.20;7.50;97948.00;;;;5116032;28;20223;-75
2022/04/09 11:04:44;;;;;;;0.70;0.70;;;8.10;52.40;7.60;97936.00;;;;5115814;28;20266;-75
2022/04/09 11:07:18;;;;;;;0.60;0.60;;;8.20;54.10;7.40;97955.00;;;;5097102;28;20230;-75
2022/04/09 11:09:56;;;;;;;0.60;0.60;;;8.20;52.50;7.50;97945.00;;;;5116052;28;20221;-76
2022/04/09 11:12:25;;;;;;;1.00;1.00;;;8.10;55.20;7.60;97937.00;;;;5115815;28;20675;-75
2022/04/09 11:14:55;;;;;;;0.60;0.60;;;8.20;52.70;7.50;97922.00;;;;5116921;28;20200;-75